sensor_id;sensor_type;location;lat;lon;timestamp;pressure;altitude;pressure_sealevel;temperature;humidity
29383;BME280;16365;51.598;7.668;2023-06-26T00:00:27;100622.25;;;29.63;39.70
29383;BME280;16365;51.598;7.668;2023-06-26T00:02:54;100621.94;;;29.61;39.87
29383;BME280;16365;51.598;7.668;2023-06-26T00:05:21;100622.84;;;29.58;40.27
29383;BME280;16365;51.598;7.668;2023-06-26T00:07:48;100616.47;;;29.54;40.19
29383;BME280;16365;51.598;7.668;2023-06-26T00:10:14;100619.75;;;29.53;40.31
29383;BME280;16365;51.598;7.668;2023-06-26T00:12:41;100625.59;;;29.49;40.26
29383;BME280;16365;51.598;7.668;2023-06-26T00:15:08;100617.59;;;29.44;40.22
29383;BME280;16365;51.598;7.668;2023-06-26T00:17:34;100618.53;;;29.41;40.20
29383;BME280;16365;51.598;7.668;2023-06-26T00:20:04;100616.59;;;29.38;40.04
29383;BME280;16365;51.598;7.668;2023-06-26T00:22:31;100616.28;;;29.36;40.34
29383;BME280;16365;51.598;7.668;2023-06-26T00:24:58;100612.75;;;29.32;40.50
29383;BME280;16365;51.598;7.668;2023-06-26T00:27:24;100614.44;;;29.29;40.42
29383;BME280;16365;51.598;7.668;2023-06-26T00:29:54;100610.91;;;29.25;40.33
29383;BME280;16365;51.598;7.668;2023-06-26T00:32:21;100608.97;;;29.22;40.80
29383;BME280;16365;51.598;7.668;2023-06-26T00:34:48;100613.53;;;29.19;40.56
29383;BME280;16365;51.598;7.668;2023-06-26T00:37:14;100610.00;;;29.15;40.41
29383;BME280;16365;51.598;7.668;2023-06-26T00:39:41;100610.94;;;29.12;40.95
29383;BME280;16365;51.598;7.668;2023-06-26T00:42:07;100611.06;;;29.09;40.53
29383;BME280;16365;51.598;7.668;2023-06-26T00:44:35;100610.38;;;29.05;40.70
29383;BME280;16365;51.598;7.668;2023-06-26T00:47:01;100615.75;;;29.03;40.84
29383;BME280;16365;51.598;7.668;2023-06-26T00:49:28;100610.16;;;28.99;40.79
29383;BME280;16365;51.598;7.668;2023-06-26T00:51:55;100607.75;;;28.98;40.85
29383;BME280;16365;51.598;7.668;2023-06-26T00:54:22;100603.75;;;28.95;40.82
29383;BME280;16365;51.598;7.668;2023-06-26T00:56:49;100605.81;;;28.94;40.95
29383;BME280;16365;51.598;7.668;2023-06-26T00:59:15;100597.69;;;28.93;40.73
29383;BME280;16365;51.598;7.668;2023-06-26T01:01:41;100598.94;;;28.92;40.73
29383;BME280;16365;51.598;7.668;2023-06-26T01:04:08;100607.50;;;28.92;40.45
29383;BME280;16365;51.598;7.668;2023-06-26T01:06:46;100599.38;;;28.90;39.46
29383;BME280;16365;51.598;7.668;2023-06-26T01:09:18;100595.63;;;28.93;39.09
29383;BME280;16365;51.598;7.668;2023-06-26T01:11:46;100593.56;;;28.94;38.44
29383;BME280;16365;51.598;7.668;2023-06-26T01:14:12;100587.41;;;28.96;38.70
29383;BME280;16365;51.598;7.668;2023-06-26T01:16:40;100584.94;;;28.98;38.76
29383;BME280;16365;51.598;7.668;2023-06-26T01:19:20;100582.88;;;28.98;38.27
29383;BME280;16365;51.598;7.668;2023-06-26T01:21:56;100582.28;;;29.03;38.45
29383;BME280;16365;51.598;7.668;2023-06-26T01:24:25;100578.06;;;29.08;38.19
29383;BME280;16365;51.598;7.668;2023-06-26T01:26:59;100580.44;;;29.09;37.82
29383;BME280;16365;51.598;7.668;2023-06-26T01:29:30;100576.31;;;29.10;37.46
29383;BME280;16365;51.598;7.668;2023-06-26T01:31:59;100565.25;;;29.12;36.84
29383;BME280;16365;51.598;7.668;2023-06-26T01:34:27;100566.38;;;29.15;37.40
29383;BME280;16365;51.598;7.668;2023-06-26T01:36:53;100564.31;;;29.15;36.81
29383;BME280;16365;51.598;7.668;2023-06-26T01:39:20;100560.22;;;29.16;36.50
29383;BME280;16365;51.598;7.668;2023-06-26T01:41:46;100561.34;;;29.19;36.09
29383;BME280;16365;51.598;7.668;2023-06-26T01:44:23;100554.16;;;29.14;35.93
29383;BME280;16365;51.598;7.668;2023-06-26T01:55:32;100559.97;;;29.24;35.53
29383;BME280;16365;51.598;7.668;2023-06-26T01:58:02;100547.63;;;29.27;35.55
29383;BME280;16365;51.598;7.668;2023-06-26T02:00:30;100554.63;;;29.26;35.46
29383;BME280;16365;51.598;7.668;2023-06-26T02:02:58;100554.16;;;29.27;35.65
29383;BME280;16365;51.598;7.668;2023-06-26T02:05:24;100553.34;;;29.27;35.12
29383;BME280;16365;51.598;7.668;2023-06-26T02:07:51;100547.63;;;29.27;34.97
29383;BME280;16365;51.598;7.668;2023-06-26T02:10:18;100549.22;;;29.28;35.66
29383;BME280;16365;51.598;7.668;2023-06-26T02:12:44;100544.78;;;29.27;34.99
29383;BME280;16365;51.598;7.668;2023-06-26T02:15:11;100541.91;;;29.27;35.29
29383;BME280;16365;51.598;7.668;2023-06-26T02:17:38;100541.91;;;29.27;34.88
29383;BME280;16365;51.598;7.668;2023-06-26T02:20:05;100545.22;;;29.25;34.81
29383;BME280;16365;51.598;7.668;2023-06-26T02:22:32;100544.78;;;29.27;34.85
29383;BME280;16365;51.598;7.668;2023-06-26T02:24:59;100539.06;;;29.27;34.43
29383;BME280;16365;51.598;7.668;2023-06-26T02:27:25;100533.34;;;29.27;34.90
29383;BME280;16365;51.598;7.668;2023-06-26T02:29:51;100541.91;;;29.27;34.58
29383;BME280;16365;51.598;7.668;2023-06-26T02:32:18;100534.63;;;29.26;34.74
29383;BME280;16365;51.598;7.668;2023-06-26T02:34:45;100534.16;;;29.27;34.10
29383;BME280;16365;51.598;7.668;2023-06-26T02:37:11;100537.81;;;29.28;34.58
29383;BME280;16365;51.598;7.668;2023-06-26T02:39:37;100547.16;;;29.28;34.34
29383;BME280;16365;51.598;7.668;2023-06-26T02:42:04;100540.66;;;29.28;34.22
29383;BME280;16365;51.598;7.668;2023-06-26T02:44:31;100540.97;;;29.30;34.78
29383;BME280;16365;51.598;7.668;2023-06-26T02:46:58;100532.88;;;29.28;34.78
29383;BME280;16365;51.598;7.668;2023-06-26T02:49:25;100540.53;;;29.31;34.51
29383;BME280;16365;51.598;7.668;2023-06-26T02:51:51;100540.53;;;29.31;34.03
29383;BME280;16365;51.598;7.668;2023-06-26T02:54:18;100537.69;;;29.31;34.25
29383;BME280;16365;51.598;7.668;2023-06-26T02:56:44;100534.03;;;29.31;34.30
29383;BME280;16365;51.598;7.668;2023-06-26T02:59:13;100535.75;;;29.28;34.77
29383;BME280;16365;51.598;7.668;2023-06-26T03:01:40;100542.72;;;29.27;34.50
29383;BME280;16365;51.598;7.668;2023-06-26T03:04:06;100535.41;;;29.26;34.18
29383;BME280;16365;51.598;7.668;2023-06-26T03:06:33;100534.16;;;29.27;34.60
29383;BME280;16365;51.598;7.668;2023-06-26T03:09:00;100545.56;;;29.27;34.40
29383;BME280;16365;51.598;7.668;2023-06-26T03:11:26;100536.66;;;29.25;34.01
29383;BME280;16365;51.598;7.668;2023-06-26T03:13:53;100545.22;;;29.25;34.21
29383;BME280;16365;51.598;7.668;2023-06-26T03:16:19;100539.97;;;29.24;34.10
29383;BME280;16365;51.598;7.668;2023-06-26T03:18:47;100546.50;;;29.24;34.13
29383;BME280;16365;51.598;7.668;2023-06-26T03:21:15;100544.56;;;29.21;33.61
29383;BME280;16365;51.598;7.668;2023-06-26T03:23:41;100541.72;;;29.21;34.00
29383;BME280;16365;51.598;7.668;2023-06-26T03:26:08;100538.06;;;29.21;33.74
29383;BME280;16365;51.598;7.668;2023-06-26T03:28:34;100547.06;;;29.19;33.89
29383;BME280;16365;51.598;7.668;2023-06-26T03:31:01;100551.66;;;29.16;34.01
29383;BME280;16365;51.598;7.668;2023-06-26T03:33:28;100553.72;;;29.16;34.17
29383;BME280;16365;51.598;7.668;2023-06-26T03:35:54;100554.97;;;29.15;33.88
29383;BME280;16365;51.598;7.668;2023-06-26T03:38:22;100554.63;;;29.13;33.61
29383;BME280;16365;51.598;7.668;2023-06-26T03:40:48;100554.63;;;29.13;33.57
29383;BME280;16365;51.598;7.668;2023-06-26T03:43:15;100553.03;;;29.12;33.78
29383;BME280;16365;51.598;7.668;2023-06-26T03:45:41;100551.91;;;29.09;33.67
29383;BME280;16365;51.598;7.668;2023-06-26T03:48:08;100558.88;;;29.08;33.68
29383;BME280;16365;51.598;7.668;2023-06-26T03:50:35;100562.19;;;29.07;33.88
29383;BME280;16365;51.598;7.668;2023-06-26T03:53:01;100563.44;;;29.06;33.80
29383;BME280;16365;51.598;7.668;2023-06-26T03:55:28;100561.84;;;29.05;33.90
29383;BME280;16365;51.598;7.668;2023-06-26T03:57:54;100563.91;;;29.04;33.80
29383;BME280;16365;51.598;7.668;2023-06-26T04:00:21;100569.28;;;29.02;33.96
29383;BME280;16365;51.598;7.668;2023-06-26T04:02:48;100565.63;;;29.02;33.87
29383;BME280;16365;51.598;7.668;2023-06-26T04:05:14;100575.78;;;29.03;34.26
29383;BME280;16365;51.598;7.668;2023-06-26T04:07:41;100577.84;;;29.02;34.18
29383;BME280;16365;51.598;7.668;2023-06-26T04:10:08;100568.81;;;29.04;34.17
29383;BME280;16365;51.598;7.668;2023-06-26T04:12:34;100576.91;;;29.05;33.96
29383;BME280;16365;51.598;7.668;2023-06-26T04:15:01;100573.25;;;29.05;33.90
29383;BME280;16365;51.598;7.668;2023-06-26T04:17:28;100575.31;;;29.04;34.31
29383;BME280;16365;51.598;7.668;2023-06-26T04:19:54;100578.97;;;29.05;33.84
29383;BME280;16365;51.598;7.668;2023-06-26T04:22:21;100576.09;;;29.05;33.83
29383;BME280;16365;51.598;7.668;2023-06-26T04:24:48;100578.97;;;29.05;34.25
29383;BME280;16365;51.598;7.668;2023-06-26T04:27:14;100579.31;;;29.07;34.41
29383;BME280;16365;51.598;7.668;2023-06-26T04:29:40;100570.28;;;29.08;34.29
29383;BME280;16365;51.598;7.668;2023-06-26T04:32:07;100580.00;;;29.11;33.91
29383;BME280;16365;51.598;7.668;2023-06-26T04:34:34;100581.91;;;29.14;33.95
29383;BME280;16365;51.598;7.668;2023-06-26T04:37:02;100581.34;;;29.19;34.24
29383;BME280;16365;51.598;7.668;2023-06-26T04:39:30;100587.25;;;29.25;33.98
29383;BME280;16365;51.598;7.668;2023-06-26T04:41:57;100587.16;;;29.28;34.42
29383;BME280;16365;51.598;7.668;2023-06-26T04:44:23;100597.97;;;29.33;34.06
29383;BME280;16365;51.598;7.668;2023-06-26T04:46:50;100596.28;;;29.36;33.77
29383;BME280;16365;51.598;7.668;2023-06-26T04:49:18;100603.91;;;29.39;33.97
29383;BME280;16365;51.598;7.668;2023-06-26T04:51:46;100601.41;;;29.41;33.91
29383;BME280;16365;51.598;7.668;2023-06-26T04:54:12;100609.50;;;29.42;33.84
29383;BME280;16365;51.598;7.668;2023-06-26T04:56:39;100598.88;;;29.43;34.28
29383;BME280;16365;51.598;7.668;2023-06-26T04:59:10;100606.66;;;29.42;34.15
29383;BME280;16365;51.598;7.668;2023-06-26T05:01:40;100601.72;;;29.43;34.59
29383;BME280;16365;51.598;7.668;2023-06-26T05:04:07;100617.28;;;29.42;35.09
29383;BME280;16365;51.598;7.668;2023-06-26T05:06:34;100617.41;;;29.38;34.60
29383;BME280;16365;51.598;7.668;2023-06-26T05:09:00;100611.78;;;29.35;34.91
29383;BME280;16365;51.598;7.668;2023-06-26T05:11:27;100615.59;;;29.32;34.78
29383;BME280;16365;51.598;7.668;2023-06-26T05:13:53;100610.78;;;29.29;35.27
29383;BME280;16365;51.598;7.668;2023-06-26T05:16:20;100628.88;;;29.26;35.16
29383;BME280;16365;51.598;7.668;2023-06-26T05:18:46;100624.84;;;29.23;35.45
29383;BME280;16365;51.598;7.668;2023-06-26T05:21:13;100645.44;;;29.18;35.47
29383;BME280;16365;51.598;7.668;2023-06-26T05:23:40;100625.22;;;29.12;35.63
29383;BME280;16365;51.598;7.668;2023-06-26T05:26:07;100637.22;;;29.07;35.96
29383;BME280;16365;51.598;7.668;2023-06-26T05:28:34;100636.19;;;29.01;36.04
29383;BME280;16365;51.598;7.668;2023-06-26T05:31:02;100641.56;;;28.99;36.11
29383;BME280;16365;51.598;7.668;2023-06-26T05:33:34;100647.00;;;28.93;36.44
29383;BME280;16365;51.598;7.668;2023-06-26T05:36:03;100643.47;;;28.89;36.67
29383;BME280;16365;51.598;7.668;2023-06-26T05:38:30;100636.63;;;28.87;36.52
29383;BME280;16365;51.598;7.668;2023-06-26T05:40:57;100640.38;;;28.84;36.87
29383;BME280;16365;51.598;7.668;2023-06-26T05:43:24;100639.69;;;28.80;37.02
29383;BME280;16365;51.598;7.668;2023-06-26T05:45:54;100632.38;;;28.79;37.18
29383;BME280;16365;51.598;7.668;2023-06-26T05:48:21;100631.22;;;28.76;37.20
29383;BME280;16365;51.598;7.668;2023-06-26T05:50:48;100637.75;;;28.77;37.35
29383;BME280;16365;51.598;7.668;2023-06-26T05:53:14;100636.16;;;28.76;37.38
29383;BME280;16365;51.598;7.668;2023-06-26T05:55:41;100639.78;;;28.76;37.57
29383;BME280;16365;51.598;7.668;2023-06-26T05:58:10;100649.50;;;28.79;37.65
29383;BME280;16365;51.598;7.668;2023-06-26T06:00:38;100644.59;;;28.79;37.38
29383;BME280;16365;51.598;7.668;2023-06-26T06:03:05;100651.47;;;28.82;37.75
29383;BME280;16365;51.598;7.668;2023-06-26T06:05:32;100657.59;;;28.80;37.70
29383;BME280;16365;51.598;7.668;2023-06-26T06:07:58;100662.53;;;28.80;37.78
29383;BME280;16365;51.598;7.668;2023-06-26T06:10:25;100676.00;;;28.79;37.69
29383;BME280;16365;51.598;7.668;2023-06-26T06:12:51;100668.34;;;28.76;37.83
29383;BME280;16365;51.598;7.668;2023-06-26T06:15:18;100671.19;;;28.76;37.66
29383;BME280;16365;51.598;7.668;2023-06-26T06:17:45;100674.97;;;28.73;38.20
29383;BME280;16365;51.598;7.668;2023-06-26T06:20:11;100681.94;;;28.72;38.14
29383;BME280;16365;51.598;7.668;2023-06-26T06:22:38;100676.66;;;28.71;38.17
29383;BME280;16365;51.598;7.668;2023-06-26T06:25:05;100679.50;;;28.71;38.04
29383;BME280;16365;51.598;7.668;2023-06-26T06:27:31;100687.66;;;28.72;37.81
29383;BME280;16365;51.598;7.668;2023-06-26T06:29:58;100682.25;;;28.74;38.16
29383;BME280;16365;51.598;7.668;2023-06-26T06:32:25;100691.63;;;28.75;38.09
29383;BME280;16365;51.598;7.668;2023-06-26T06:34:51;100693.22;;;28.76;38.02
29383;BME280;16365;51.598;7.668;2023-06-26T06:37:17;100700.19;;;28.75;37.78
29383;BME280;16365;51.598;7.668;2023-06-26T06:39:44;100712.41;;;28.75;37.90
29383;BME280;16365;51.598;7.668;2023-06-26T06:42:11;100699.38;;;28.74;38.07
29383;BME280;16365;51.598;7.668;2023-06-26T06:44:37;100689.22;;;28.73;38.04
29383;BME280;16365;51.598;7.668;2023-06-26T06:47:04;100694.94;;;28.73;38.15
29383;BME280;16365;51.598;7.668;2023-06-26T06:49:31;100694.16;;;28.73;38.07
29383;BME280;16365;51.598;7.668;2023-06-26T06:51:57;100698.22;;;28.72;38.30
29383;BME280;16365;51.598;7.668;2023-06-26T06:54:26;100709.31;;;28.69;38.21
29383;BME280;16365;51.598;7.668;2023-06-26T06:56:53;100717.06;;;28.69;38.50
29383;BME280;16365;51.598;7.668;2023-06-26T06:59:20;100721.53;;;28.70;38.52
29383;BME280;16365;51.598;7.668;2023-06-26T07:01:47;100709.66;;;28.72;38.61
29383;BME280;16365;51.598;7.668;2023-06-26T07:04:13;100699.84;;;28.73;38.59
29383;BME280;16365;51.598;7.668;2023-06-26T07:06:40;100704.19;;;28.77;38.56
29383;BME280;16365;51.598;7.668;2023-06-26T07:09:07;100696.44;;;28.78;38.32
29383;BME280;16365;51.598;7.668;2023-06-26T07:11:33;100704.53;;;28.79;38.66
29383;BME280;16365;51.598;7.668;2023-06-26T07:13:59;100708.19;;;28.80;38.36
29383;BME280;16365;51.598;7.668;2023-06-26T07:16:26;100701.69;;;28.79;38.87
29383;BME280;16365;51.598;7.668;2023-06-26T07:18:52;100719.59;;;28.80;38.67
29383;BME280;16365;51.598;7.668;2023-06-26T07:21:19;100728.16;;;28.80;39.04
29383;BME280;16365;51.598;7.668;2023-06-26T07:23:46;100736.25;;;28.81;38.96
29383;BME280;16365;51.598;7.668;2023-06-26T07:26:14;100737.41;;;28.84;39.02
29383;BME280;16365;51.598;7.668;2023-06-26T07:28:41;100740.50;;;28.89;38.43
29383;BME280;16365;51.598;7.668;2023-06-26T07:31:07;100758.69;;;28.96;38.54
29383;BME280;16365;51.598;7.668;2023-06-26T07:33:34;100755.41;;;28.97;38.59
29383;BME280;16365;51.598;7.668;2023-06-26T07:36:00;100750.94;;;28.96;38.88
29383;BME280;16365;51.598;7.668;2023-06-26T07:38:27;100758.25;;;28.97;38.71
29383;BME280;16365;51.598;7.668;2023-06-26T07:40:53;100755.72;;;28.99;38.72
29383;BME280;16365;51.598;7.668;2023-06-26T07:43:20;100766.69;;;29.01;38.62
29383;BME280;16365;51.598;7.668;2023-06-26T07:45:46;100778.00;;;29.04;38.89
29383;BME280;16365;51.598;7.668;2023-06-26T07:48:13;100784.88;;;29.07;38.89
29383;BME280;16365;51.598;7.668;2023-06-26T07:50:40;100786.94;;;29.06;38.88
29383;BME280;16365;51.598;7.668;2023-06-26T07:53:07;100778.72;;;29.08;38.82
29383;BME280;16365;51.598;7.668;2023-06-26T07:55:33;100777.44;;;29.09;38.81
29383;BME280;16365;51.598;7.668;2023-06-26T07:58:00;100773.69;;;29.12;39.13
29383;BME280;16365;51.598;7.668;2023-06-26T08:00:28;100770.72;;;29.16;39.03
29383;BME280;16365;51.598;7.668;2023-06-26T08:02:55;100759.53;;;29.22;39.29
29383;BME280;16365;51.598;7.668;2023-06-26T08:05:21;100762.63;;;29.27;39.31
29383;BME280;16365;51.598;7.668;2023-06-26T08:07:48;100765.25;;;29.34;39.11
29383;BME280;16365;51.598;7.668;2023-06-26T08:10:15;100765.50;;;29.40;38.60
29383;BME280;16365;51.598;7.668;2023-06-26T08:12:42;100756.34;;;29.45;39.32
29383;BME280;16365;51.598;7.668;2023-06-26T08:15:11;100765.03;;;29.54;38.94
29383;BME280;16365;51.598;7.668;2023-06-26T08:17:38;100768.34;;;29.65;38.62
29383;BME280;16365;51.598;7.668;2023-06-26T08:20:05;100772.13;;;29.75;38.61
29383;BME280;16365;51.598;7.668;2023-06-26T08:22:34;100770.59;;;29.83;38.62
29383;BME280;16365;51.598;7.668;2023-06-26T08:25:02;100776.41;;;29.92;38.13
29383;BME280;16365;51.598;7.668;2023-06-26T08:27:29;100770.00;;;30.01;38.53
29383;BME280;16365;51.598;7.668;2023-06-26T08:29:55;100790.56;;;30.09;38.69
29383;BME280;16365;51.598;7.668;2023-06-26T08:32:22;100803.72;;;30.19;38.00
29383;BME280;16365;51.598;7.668;2023-06-26T08:34:48;100809.66;;;30.25;38.22
29383;BME280;16365;51.598;7.668;2023-06-26T08:37:17;100809.06;;;30.30;37.88
29383;BME280;16365;51.598;7.668;2023-06-26T08:39:43;100814.78;;;30.30;37.37
29383;BME280;16365;51.598;7.668;2023-06-26T08:42:10;100823.06;;;30.28;37.41
29383;BME280;16365;51.598;7.668;2023-06-26T08:44:36;100815.06;;;30.23;37.83
29383;BME280;16365;51.598;7.668;2023-06-26T08:47:18;100818.81;;;30.19;37.50
29383;BME280;16365;51.598;7.668;2023-06-26T08:50:07;100828.06;;;30.11;38.17
29383;BME280;16365;51.598;7.668;2023-06-26T08:52:56;100826.97;;;30.08;38.15
29383;BME280;16365;51.598;7.668;2023-06-26T08:55:26;100833.78;;;30.11;38.17
29383;BME280;16365;51.598;7.668;2023-06-26T08:57:54;100829.34;;;30.10;38.21
29383;BME280;16365;51.598;7.668;2023-06-26T09:00:21;100830.13;;;30.10;38.18
29383;BME280;16365;51.598;7.668;2023-06-26T09:02:47;100820.28;;;30.11;38.07
29383;BME280;16365;51.598;7.668;2023-06-26T09:05:14;100830.06;;;30.14;38.44
29383;BME280;16365;51.598;7.668;2023-06-26T09:07:41;100836.91;;;30.16;38.05
29383;BME280;16365;51.598;7.668;2023-06-26T09:10:08;100832.81;;;30.17;38.00
29383;BME280;16365;51.598;7.668;2023-06-26T09:12:36;100835.66;;;30.17;37.68
29383;BME280;16365;51.598;7.668;2023-06-26T09:15:05;100837.69;;;30.17;38.22
29383;BME280;16365;51.598;7.668;2023-06-26T09:17:39;100831.31;;;30.13;37.35
29383;BME280;16365;51.598;7.668;2023-06-26T09:20:09;100838.63;;;30.14;37.37
29383;BME280;16365;51.598;7.668;2023-06-26T09:22:37;100839.53;;;30.11;37.44
29383;BME280;16365;51.598;7.668;2023-06-26T09:25:05;100842.50;;;30.07;37.21
29383;BME280;16365;51.598;7.668;2023-06-26T09:27:33;100854.88;;;30.04;37.71
29383;BME280;16365;51.598;7.668;2023-06-26T09:30:05;100848.47;;;30.00;37.70
29383;BME280;16365;51.598;7.668;2023-06-26T09:32:36;100844.59;;;29.94;37.06
29383;BME280;16365;51.598;7.668;2023-06-26T09:35:04;100847.88;;;29.92;37.50
29383;BME280;16365;51.598;7.668;2023-06-26T09:37:30;100850.09;;;29.88;37.20
29383;BME280;16365;51.598;7.668;2023-06-26T09:39:58;100841.63;;;29.85;37.78
29383;BME280;16365;51.598;7.668;2023-06-26T09:42:24;100844.59;;;29.81;37.70
29383;BME280;16365;51.598;7.668;2023-06-26T09:44:51;100838.97;;;29.78;38.01
29383;BME280;16365;51.598;7.668;2023-06-26T09:47:21;100833.03;;;29.72;38.40
29383;BME280;16365;51.598;7.668;2023-06-26T09:49:51;100841.63;;;29.72;38.20
29383;BME280;16365;51.598;7.668;2023-06-26T09:52:18;100835.09;;;29.72;38.36
29383;BME280;16365;51.598;7.668;2023-06-26T09:54:46;100832.94;;;29.76;38.79
29383;BME280;16365;51.598;7.668;2023-06-26T09:57:16;100838.97;;;29.78;38.50
29383;BME280;16365;51.598;7.668;2023-06-26T09:59:43;100835.09;;;29.84;38.16
29383;BME280;16365;51.598;7.668;2023-06-26T10:02:11;100840.25;;;29.89;37.78
29383;BME280;16365;51.598;7.668;2023-06-26T10:04:39;100836.91;;;29.91;37.86
29383;BME280;16365;51.598;7.668;2023-06-26T10:07:08;100849.38;;;29.97;37.70
29383;BME280;16365;51.598;7.668;2023-06-26T10:09:38;100843.22;;;29.99;37.25
29383;BME280;16365;51.598;7.668;2023-06-26T10:12:12;100852.13;;;30.01;36.70
29383;BME280;16365;51.598;7.668;2023-06-26T10:14:43;100852.81;;;30.05;37.48
29383;BME280;16365;51.598;7.668;2023-06-26T10:17:17;100856.00;;;30.07;36.82
29383;BME280;16365;51.598;7.668;2023-06-26T10:19:45;100865.66;;;30.13;36.55
29383;BME280;16365;51.598;7.668;2023-06-26T10:22:16;100865.50;;;30.16;36.21
29383;BME280;16365;51.598;7.668;2023-06-26T10:24:45;100867.78;;;30.21;36.19
29383;BME280;16365;51.598;7.668;2023-06-26T10:27:20;100866.19;;;30.20;35.95
29383;BME280;16365;51.598;7.668;2023-06-26T10:29:53;100865.28;;;30.24;36.19
29383;BME280;16365;51.598;7.668;2023-06-26T10:32:22;100869.25;;;30.26;36.50
29383;BME280;16365;51.598;7.668;2023-06-26T10:34:51;100877.41;;;30.28;36.60
29383;BME280;16365;51.598;7.668;2023-06-26T10:37:18;100885.84;;;30.31;36.40
29383;BME280;16365;51.598;7.668;2023-06-26T10:39:54;100874.41;;;30.31;35.75
29383;BME280;16365;51.598;7.668;2023-06-26T10:42:37;100871.41;;;30.35;35.21
29383;BME280;16365;51.598;7.668;2023-06-26T10:45:17;100873.38;;;30.38;34.81
29383;BME280;16365;51.598;7.668;2023-06-26T10:47:48;100871.97;;;30.42;34.59
29383;BME280;16365;51.598;7.668;2023-06-26T10:50:29;100859.28;;;30.43;34.56
29383;BME280;16365;51.598;7.668;2023-06-26T10:53:21;100867.28;;;30.49;34.66
29383;BME280;16365;51.598;7.668;2023-06-26T10:56:03;100872.06;;;30.52;34.55
29383;BME280;16365;51.598;7.668;2023-06-26T10:58:32;100871.00;;;30.58;34.30
29383;BME280;16365;51.598;7.668;2023-06-26T11:03:44;100882.53;;;30.67;33.14
29383;BME280;16365;51.598;7.668;2023-06-26T11:06:12;100879.59;;;30.71;33.11
29383;BME280;16365;51.598;7.668;2023-06-26T11:14:21;100878.53;;;30.65;32.87
29383;BME280;16365;51.598;7.668;2023-06-26T11:16:48;100884.72;;;30.63;33.76
29383;BME280;16365;51.598;7.668;2023-06-26T11:19:18;100877.75;;;30.64;32.33
29383;BME280;16365;51.598;7.668;2023-06-26T11:21:46;100885.66;;;30.60;31.74
29383;BME280;16365;51.598;7.668;2023-06-26T11:24:13;100884.53;;;30.58;31.59
29383;BME280;16365;51.598;7.668;2023-06-26T11:26:41;100889.44;;;30.57;32.16
29383;BME280;16365;51.598;7.668;2023-06-26T11:29:09;100896.44;;;30.56;32.36
29383;BME280;16365;51.598;7.668;2023-06-26T11:31:40;100896.44;;;30.56;32.03
29383;BME280;16365;51.598;7.668;2023-06-26T11:34:09;100896.78;;;30.58;31.58
29383;BME280;16365;51.598;7.668;2023-06-26T11:36:38;100884.84;;;30.60;31.64
29383;BME280;16365;51.598;7.668;2023-06-26T11:39:06;100886.91;;;30.59;31.70
29383;BME280;16365;51.598;7.668;2023-06-26T11:41:34;100895.38;;;30.63;32.35
29383;BME280;16365;51.598;7.668;2023-06-26T11:44:09;100896.50;;;30.65;31.72
29383;BME280;16365;51.598;7.668;2023-06-26T11:46:40;100903.72;;;30.70;31.86
29383;BME280;16365;51.598;7.668;2023-06-26T11:49:07;100904.56;;;30.70;30.95
29383;BME280;16365;51.598;7.668;2023-06-26T11:51:36;100911.50;;;30.69;31.16
29383;BME280;16365;51.598;7.668;2023-06-26T11:54:03;100914.84;;;30.68;31.87
29383;BME280;16365;51.598;7.668;2023-06-26T11:56:31;100908.78;;;30.66;31.64
29383;BME280;16365;51.598;7.668;2023-06-26T11:59:05;100926.97;;;30.59;31.84
29383;BME280;16365;51.598;7.668;2023-06-26T12:01:38;100939.81;;;30.55;31.78
29383;BME280;16365;51.598;7.668;2023-06-26T12:04:08;100936.28;;;30.51;32.49
29383;BME280;16365;51.598;7.668;2023-06-26T12:06:37;100932.75;;;30.46;32.06
29383;BME280;16365;51.598;7.668;2023-06-26T12:09:07;100926.78;;;30.41;32.22
29383;BME280;16365;51.598;7.668;2023-06-26T12:11:37;100919.16;;;30.38;32.60
29383;BME280;16365;51.598;7.668;2023-06-26T12:14:05;100929.00;;;30.37;32.38
29383;BME280;16365;51.598;7.668;2023-06-26T12:16:33;100945.69;;;30.38;33.13
29383;BME280;16365;51.598;7.668;2023-06-26T12:19:04;100952.69;;;30.37;32.08
29383;BME280;16365;51.598;7.668;2023-06-26T12:24:06;100954.84;;;30.33;31.77
29383;BME280;16365;51.598;7.668;2023-06-26T12:26:33;100963.53;;;30.30;31.62
29383;BME280;16365;51.598;7.668;2023-06-26T12:29:07;100957.94;;;30.26;31.29
29383;BME280;16365;51.598;7.668;2023-06-26T12:31:34;100940.91;;;30.23;31.70
29383;BME280;16365;51.598;7.668;2023-06-26T12:34:09;100941.50;;;30.17;31.88
29383;BME280;16365;51.598;7.668;2023-06-26T12:36:42;100940.66;;;30.17;32.38
29383;BME280;16365;51.598;7.668;2023-06-26T12:39:11;100941.03;;;30.19;31.82
29383;BME280;16365;51.598;7.668;2023-06-26T12:41:54;100954.53;;;30.18;31.70
29383;BME280;16365;51.598;7.668;2023-06-26T12:44:25;100947.88;;;30.21;32.03
29383;BME280;16365;51.598;7.668;2023-06-26T12:46:57;100951.56;;;30.22;31.22
29383;BME280;16365;51.598;7.668;2023-06-26T12:49:31;100959.31;;;30.21;31.35
29383;BME280;16365;51.598;7.668;2023-06-26T12:51:59;100965.38;;;30.24;31.67
29383;BME280;16365;51.598;7.668;2023-06-26T12:54:27;100961.72;;;30.23;31.48
29383;BME280;16365;51.598;7.668;2023-06-26T12:56:55;100959.66;;;30.24;31.83
29383;BME280;16365;51.598;7.668;2023-06-26T12:59:22;100954.84;;;30.20;31.53
29383;BME280;16365;51.598;7.668;2023-06-26T13:01:49;100959.31;;;30.21;30.88
29383;BME280;16365;51.598;7.668;2023-06-26T13:04:16;100966.19;;;30.24;30.88
29383;BME280;16365;51.598;7.668;2023-06-26T13:06:43;100979.22;;;30.25;30.50
29383;BME280;16365;51.598;7.668;2023-06-26T13:09:10;100972.69;;;30.25;29.78
29383;BME280;16365;51.598;7.668;2023-06-26T13:11:37;100968.25;;;30.24;29.53
29383;BME280;16365;51.598;7.668;2023-06-26T13:14:03;100965.38;;;30.24;29.48